New Iberia, LA

11:41 PM CST on November 23, 2014 (GMT -0600)
Belair | Change Station
CLOSE
Current Station
Personal Weather Station
Location: New Iberia, LA
Elevation: 18 ft
Nearby Weather Stations

Elev 18 ft 29.99 °N, 91.77 °W | Updated 3 seconds ago

Fog
Fog
65.1 °F
Feels Like 65.1 °F
N
0.0
Wind Variable Wind from SSW
Gusts 0.0 mph

Today
High -- | Low -- °F
--% Chance of Precip.
Yesterday
High -- | Low -- °F
Precip. -- in
6:39 AM 5:08 PM
Waxing Crescent, 4% visible
Pressure 29.73 in
Visibility 1.2 miles
Clouds Overcast 200 ft
Dew Point 60 °F
Humidity 82%
Rainfall 0.58 in
Snow Depth Not available.
UV 0 out of 12
Pollen .40 out of 12
Air Quality Not available.
Flu Activity Not available.
SPECI KARA 240524Z AUTO 21007KT 1 1/4SM BR OVC002 19/18 A2973 RMK AO2 T01940183

More Conditions Fewer Conditions

Pressure 29.73 in
Visibility 1.2 miles
Clouds Overcast 200 ft
Dew Point 60 °F
Humidity 82%
Rainfall 0.58 in
Snow Depth Not available.
UV 0 out of 12
Pollen .40 out of 12
Air Quality Not available.
Flu Activity Not available.
SPECI KARA 240524Z AUTO 21007KT 1 1/4SM BR OVC002 19/18 A2973 RMK AO2 T01940183

More Conditions Fewer Conditions

10-Day Weather Forecast

Almanac

Astronomy

Nov. 23, 2014 Rise Set
Actual Time
Civil Twilight
Nautical Twilight
Astronomical Twilight
Moon
Length of Visible Light
Length of Day
Tomorrow will be .
, % of the Moon is Illuminated

Today's Extremes

State Highs State Lows

Community

WunderPhotos

Upload Photos

1,773,279 photos uploaded!

WunderBlogs® & News

Nearby

Air Quality

  Air Quality AQ Index Pollutant
Not available.

Snow Depth

Station Depth Elevation

Earthquake Activity

City Distance Mag. Time & Date
Minimum magnitude displayed is 2.5.

Coastal Water Temperatures

Place Temperature

Nearby Weather Stations